PAAQ METAR and TAF weather

Enter ICAO airport designator
Station Type Date Time Source
PAAQ METAR 2020/09/22 19:53 UTC NOAA

PAAQ 221953Z 00000KT 10SM SCT080 OVC130 09/06 A2940 RMK AO2 SLP957 T00940056


Station Type Date Time Source
PAAQ Decoded METAR 2020/09/22 19:53 UTC NOAA

PALMER MUNICIPAL AIRPORT, AK, United States (PAAQ) 61-36N 149-06W
Sep 22, 2020 - 03:53 PM EDT / 2020.09.22 1953 UTC
Wind: Calm:0
Visibility: 10 mile(s):0
Sky conditions: overcast
Temperature: 48.9 F (9.4 C)
Dew Point: 42.1 F (5.6 C)
Relative Humidity: 77%
Pressure (altimeter): 29.4 in. Hg (995 hPa)
ob: PAAQ 221953Z 00000KT 10SM SCT080 OVC130 09/06 A2940 RMK AO2 SLP957 T00940056
cycle: 20

Station Type Date Time Source
PAAQ TAF 2020/09/22 18:24 UTC NOAA

TAF PAAQ 221721Z 2218/2318 01005KT P6SM SCT060 OVC080
FM222100 12010KT P6SM OVC060
FM230500 06005KT P6SM OVC060

Example: see airport list